KPBI/PBI METAR and TAF weather

Enter ICAO airport designator
Station Type Date Time Source
KPBI METAR 2019/02/22 23:53 UTC NOAA

KPBI 222353Z 14010KT 10SM SCT075 26/22 A3014 RMK AO2 SLP206 T02560222 10289 20256 53002 $


Station Type Date Time Source
KPBI Decoded METAR 2019/02/22 23:53 UTC NOAA

PALM BEACH INTERNATIONAL, FL, United States (KPBI) 26-41N 80-06W 6M
Feb 22, 2019 - 06:53 PM EST / 2019.02.22 2353 UTC
Wind: from the SE (140 degrees) at 12 MPH (10 KT):0
Visibility: 10 mile(s):0
Sky conditions: partly cloudy
Temperature: 78.1 F (25.6 C)
Dew Point: 72.0 F (22.2 C)
Relative Humidity: 81%
Pressure (altimeter): 30.14 in. Hg (1020 hPa)
Pressure tendency: 0.01 inches (0.2 hPa) higher than three hours ago
ob: KPBI 222353Z 14010KT 10SM SCT075 26/22 A3014 RMK AO2 SLP206 T02560222 10289 20256 53002
cycle: 0

Station Type Date Time Source
KPBI TAF 2019/02/22 21:10 UTC NOAA

TAF
AMD KPBI 222103Z 2221/2318 13012KT P6SM SCT020 SCT050
FM230200 12008KT P6SM SCT020
FM231400 13015KT P6SM SCT030 SCT060


Example: see airport list